Time;durP1;ratioP1;P1;durP2;ratioP2;P2;SDS_P1;SDS_P2;PMS_P1;PMS_P2;Temp;Humidity;BMP_temperature;BMP_pressure;BME280_temperature;BME280_humidity;BME280_pressure;Samples;Min_cycle;Max_cycle;Signal;HPM_P1;HPM_P2
2022/12/03 00:01:46;;;;;;;27.38;11.20;;;4.60;99.90;;;;;;5051052;28;20106;-74
2022/12/03 00:04:12;;;;;;;26.75;11.40;;;4.60;99.90;;;;;;5051413;28;20049;-73
2022/12/03 00:06:38;;;;;;;25.58;12.23;;;4.80;99.90;;;;;;5051156;28;20045;-72
2022/12/03 00:09:04;;;;;;;29.23;11.63;;;4.60;99.90;;;;;;5034584;28;20147;-74
2022/12/03 00:11:30;;;;;;;26.83;11.25;;;4.60;99.90;;;;;;5051377;28;20049;-73
2022/12/03 00:13:56;;;;;;;26.05;10.77;;;4.70;99.90;;;;;;5055192;28;20045;-73
2022/12/03 00:16:22;;;;;;;25.40;10.77;;;4.70;99.90;;;;;;5034853;28;20044;-73
2022/12/03 00:18:48;;;;;;;23.77;10.68;;;4.70;99.90;;;;;;5037695;28;20052;-72
2022/12/03 00:21:14;;;;;;;24.70;11.30;;;4.70;99.90;;;;;;5022273;28;20056;-74
2022/12/03 00:23:40;;;;;;;23.67;11.25;;;4.70;99.90;;;;;;5035178;28;20056;-75
2022/12/03 00:26:06;;;;;;;23.85;10.25;;;4.70;99.90;;;;;;5051058;28;20041;-74
2022/12/03 00:28:31;;;;;;;25.08;11.32;;;4.70;99.90;;;;;;5034442;28;20502;-73
2022/12/03 00:30:57;;;;;;;24.80;11.15;;;5.20;99.90;;;;;;5034262;28;20410;-74
2022/12/03 00:33:23;;;;;;;24.83;10.93;;;4.70;99.90;;;;;;5018060;28;20122;-74
2022/12/03 00:35:49;;;;;;;24.63;10.98;;;4.70;99.90;;;;;;5034058;28;20442;-75
2022/12/03 00:38:15;;;;;;;26.65;11.75;;;4.70;99.90;;;;;;5020306;28;20056;-75
2022/12/03 00:40:41;;;;;;;28.20;12.02;;;4.70;99.90;;;;;;5005272;28;20079;-75
2022/12/03 00:43:07;;;;;;;24.88;11.50;;;4.70;99.90;;;;;;5037824;28;20049;-73
2022/12/03 00:45:33;;;;;;;24.73;11.13;;;4.70;99.90;;;;;;5037713;28;20136;-72
2022/12/03 00:47:59;;;;;;;24.58;11.98;;;4.70;99.90;;;;;;5037037;28;20053;-73
2022/12/03 00:50:24;;;;;;;25.33;11.20;;;4.70;99.90;;;;;;5054500;28;20049;-73
2022/12/03 00:52:50;;;;;;;25.23;11.52;;;4.70;99.90;;;;;;5037229;28;20132;-72
2022/12/03 00:55:16;;;;;;;24.90;10.60;;;4.70;99.90;;;;;;5037629;28;20144;-74
2022/12/03 00:57:42;;;;;;;27.73;12.40;;;4.70;99.90;;;;;;5054280;28;20124;-74
2022/12/03 01:00:10;;;;;;;24.42;11.25;;;4.70;99.90;;;;;;5053859;28;20055;-73
2022/12/03 01:02:35;;;;;;;26.90;11.80;;;4.60;99.90;;;;;;5037450;28;20514;-74
2022/12/03 01:05:01;;;;;;;27.48;11.88;;;4.70;99.90;;;;;;5037364;28;20041;-72
2022/12/03 01:07:27;;;;;;;26.83;12.40;;;4.60;99.90;;;;;;5021217;28;20099;-73
2022/12/03 01:09:53;;;;;;;24.10;12.02;;;4.60;99.90;;;;;;5054083;28;20052;-72
2022/12/03 01:12:19;;;;;;;25.70;12.30;;;4.60;99.90;;;;;;5037601;28;20041;-73
2022/12/03 01:14:45;;;;;;;26.38;11.90;;;4.50;99.90;;;;;;5037411;28;20057;-73
2022/12/03 01:17:11;;;;;;;26.20;11.25;;;4.50;99.90;;;;;;5020338;28;20536;-74
2022/12/03 01:19:38;;;;;;;25.55;11.90;;;4.50;99.90;;;;;;5021086;28;20460;-73
2022/12/03 01:22:04;;;;;;;26.20;12.30;;;4.50;99.90;;;;;;5037090;28;20132;-73
2022/12/03 01:24:29;;;;;;;26.15;11.60;;;4.40;99.90;;;;;;5036962;28;20106;-72
2022/12/03 01:26:56;;;;;;;25.63;11.60;;;4.40;99.90;;;;;;5053649;28;20040;-73
2022/12/03 01:29:22;;;;;;;27.13;12.00;;;4.40;99.90;;;;;;5053809;28;20041;-73
2022/12/03 01:34:32;;;;;;;29.50;12.90;;;4.40;99.90;;;;;;5053382;28;20392;-73
2022/12/03 01:36:58;;;;;;;25.30;11.55;;;4.40;99.90;;;;;;5036509;28;20049;-74
2022/12/03 01:39:24;;;;;;;27.45;11.63;;;4.40;99.90;;;;;;5037019;28;20076;-74
2022/12/03 01:41:51;;;;;;;27.23;12.20;;;4.40;99.90;;;;;;5036976;28;20533;-73
2022/12/03 01:44:23;;;;;;;25.92;11.38;;;4.40;99.90;;;;;;5036422;28;20144;-73
2022/12/03 01:46:50;;;;;;;25.08;11.40;;;4.40;99.90;;;;;;5036307;28;20056;-74
2022/12/03 01:49:24;;;;;;;25.92;11.40;;;4.40;99.90;;;;;;5052195;28;20052;-73
2022/12/03 01:51:52;;;;;;;27.85;12.88;;;4.40;99.90;;;;;;5036555;28;20045;-73
2022/12/03 01:54:21;;;;;;;25.27;11.90;;;4.40;99.90;;;;;;5036555;28;20132;-74
2022/12/03 01:56:47;;;;;;;27.65;12.55;;;4.40;99.90;;;;;;5036265;28;20518;-74
2022/12/03 01:59:16;;;;;;;26.40;11.25;;;4.50;99.90;;;;;;5019952;28;20057;-74
2022/12/03 02:01:43;;;;;;;26.80;11.38;;;4.50;99.90;;;;;;5036448;28;20045;-75
2022/12/03 02:04:15;;;;;;;28.42;12.13;;;4.50;99.90;;;;;;5036390;28;20391;-73
2022/12/03 02:06:44;;;;;;;25.95;11.57;;;4.50;99.90;;;;;;5036525;28;20045;-73
2022/12/03 02:09:11;;;;;;;25.50;11.85;;;4.50;99.90;;;;;;5019573;28;20045;-74
2022/12/03 02:11:49;;;;;;;26.42;12.15;;;4.50;99.90;;;;;;5036420;28;20051;-73
2022/12/03 02:14:20;;;;;;;27.70;12.13;;;4.50;99.90;;;;;;5036384;28;20108;-72
2022/12/03 02:16:46;;;;;;;27.40;11.80;;;4.50;99.90;;;;;;5052760;28;20041;-72
2022/12/03 02:19:24;;;;;;;29.70;11.98;;;4.50;99.90;;;;;;5053555;28;20045;-73
2022/12/03 02:21:58;;;;;;;28.75;12.30;;;4.50;99.90;;;;;;5036240;28;20076;-74
2022/12/03 02:24:38;;;;;;;30.25;12.55;;;4.50;99.90;;;;;;5036083;28;20052;-74
2022/12/03 02:27:05;;;;;;;27.40;12.88;;;4.50;99.90;;;;;;5036367;28;20060;-75
2022/12/03 02:29:31;;;;;;;28.02;12.70;;;4.50;99.90;;;;;;5055857;28;20368;-74
2022/12/03 02:31:57;;;;;;;27.90;12.07;;;4.40;99.90;;;;;;5053112;28;20052;-72
2022/12/03 02:34:36;;;;;;;26.63;11.82;;;4.40;99.90;;;;;;5037890;28;20153;-73
2022/12/03 02:37:04;;;;;;;29.15;12.18;;;4.50;99.90;;;;;;5052802;28;20044;-72
2022/12/03 02:39:33;;;;;;;27.42;12.15;;;4.40;99.90;;;;;;5035641;28;20150;-73
2022/12/03 02:44:43;;;;;;;28.67;12.25;;;5.30;99.90;;;;;;5038452;28;20057;-73
2022/12/03 02:47:10;;;;;;;24.83;11.82;;;4.40;99.90;;;;;;5018649;28;20056;-73
2022/12/03 02:49:36;;;;;;;26.65;12.52;;;4.40;99.90;;;;;;5019370;28;20056;-74
2022/12/03 02:54:33;;;;;;;27.05;11.73;;;4.40;99.90;;;;;;4899062;22;10000589;-74
2022/12/03 02:56:59;;;;;;;26.42;11.63;;;4.40;99.90;;;;;;4686903;28;9999637;-74
2022/12/03 02:59:25;;;;;;;29.85;12.65;;;4.40;99.90;;;;;;5058359;28;20130;-73
2022/12/03 03:01:51;;;;;;;25.08;11.55;;;4.40;99.90;;;;;;5074927;28;20122;-74
2022/12/03 03:04:17;;;;;;;27.73;12.20;;;4.40;99.90;;;;;;5058378;28;20047;-73
2022/12/03 03:06:43;;;;;;;26.95;12.60;;;4.30;99.90;;;;;;5058496;28;20044;-73
2022/12/03 03:09:09;;;;;;;24.85;11.95;;;4.30;99.90;;;;;;5058283;28;20058;-73
2022/12/03 03:11:35;;;;;;;26.65;11.82;;;4.30;99.90;;;;;;5074834;28;20040;-73
2022/12/03 03:14:02;;;;;;;25.98;12.30;;;4.30;99.90;;;;;;5025454;28;20074;-73
2022/12/03 03:16:28;;;;;;;25.23;12.27;;;4.30;99.90;;;;;;5058198;28;20040;-74
2022/12/03 03:18:53;;;;;;;27.17;12.60;;;4.20;99.90;;;;;;5058374;28;20040;-72
2022/12/03 03:21:19;;;;;;;27.75;12.63;;;4.20;99.90;;;;;;5041427;28;20048;-71
2022/12/03 03:23:45;;;;;;;27.55;12.45;;;4.20;99.90;;;;;;5058207;28;20048;-73
2022/12/03 03:26:13;;;;;;;28.70;12.30;;;4.20;99.90;;;;;;5058184;28;20047;-72
2022/12/03 03:28:47;;;;;;;29.20;12.05;;;4.20;99.90;;;;;;5074997;28;20044;-72
2022/12/03 03:31:16;;;;;;;25.60;13.13;;;4.20;99.90;;;;;;5074891;28;20040;-73
2022/12/03 03:33:46;;;;;;;26.30;11.95;;;4.20;99.90;;;;;;5058219;28;20052;-74
2022/12/03 03:36:13;;;;;;;25.45;12.05;;;4.20;99.90;;;;;;5057849;28;20083;-72
2022/12/03 03:38:39;;;;;;;26.77;11.45;;;4.20;99.90;;;;;;5041376;28;20486;-74
2022/12/03 03:41:07;;;;;;;26.42;11.95;;;4.20;99.90;;;;;;5025134;28;20485;-72
2022/12/03 03:43:36;;;;;;;27.23;11.88;;;4.20;99.90;;;;;;5057778;28;20375;-72
2022/12/03 03:46:06;;;;;;;29.10;12.82;;;4.20;99.90;;;;;;5074771;28;20048;-74
2022/12/03 03:48:33;;;;;;;28.25;12.40;;;4.20;99.90;;;;;;5074552;28;20047;-74
2022/12/03 03:51:02;;;;;;;27.33;12.55;;;4.20;99.90;;;;;;5041661;28;20052;-75
2022/12/03 03:53:29;;;;;;;30.70;13.10;;;4.20;99.90;;;;;;5057401;28;20055;-74
2022/12/03 03:55:55;;;;;;;27.65;12.77;;;4.20;99.90;;;;;;5057347;28;20083;-73
2022/12/03 03:58:21;;;;;;;27.35;12.95;;;4.10;99.90;;;;;;5057784;28;20090;-74
2022/12/03 04:00:47;;;;;;;29.38;13.57;;;4.10;99.90;;;;;;5057947;28;20050;-74
2022/12/03 04:03:13;;;;;;;28.33;13.45;;;4.10;99.90;;;;;;5041155;28;20118;-75
2022/12/03 04:05:39;;;;;;;28.92;12.13;;;4.20;99.90;;;;;;5057777;28;20383;-74
2022/12/03 04:08:05;;;;;;;27.95;13.35;;;4.20;99.90;;;;;;5074634;28;20075;-73
2022/12/03 04:13:15;;;;;;;29.38;12.30;;;4.10;99.90;;;;;;5076435;28;20055;-74
2022/12/03 04:15:41;;;;;;;27.75;12.05;;;4.10;99.90;;;;;;5078243;28;20413;-74
2022/12/03 04:22:38;;;;;;;29.40;13.15;;;4.20;99.90;;;;;;5064259;28;20087;-73
2022/12/03 04:23:37;;;;;;;28.02;11.88;;;4.10;99.90;;;;;;5064403;28;20101;-73
2022/12/03 04:28:50;;;;;;;27.23;12.30;;;4.10;99.90;;;;;;5078329;28;20052;-74
2022/12/03 04:36:44;;;;;;;26.85;12.30;;;4.10;99.90;;;;;;5077837;28;20048;-74
2022/12/03 04:39:09;;;;;;;28.92;12.63;;;4.10;99.90;;;;;;5061538;28;20097;-73
2022/12/03 04:41:35;;;;;;;31.52;12.73;;;4.10;99.90;;;;;;5044515;28;20134;-73
2022/12/03 04:46:45;;;;;;;29.35;12.32;;;4.10;99.90;;;;;;5077906;28;20048;-74
2022/12/03 04:49:11;;;;;;;29.33;12.52;;;4.10;99.90;;;;;;5044699;28;20401;-73
2022/12/03 04:51:37;;;;;;;29.77;13.80;;;4.00;99.90;;;;;;5044225;28;20398;-73
2022/12/03 04:54:03;;;;;;;30.73;12.73;;;4.00;99.90;;;;;;5060783;28;20147;-75
2022/12/03 04:56:29;;;;;;;30.38;13.30;;;4.00;99.90;;;;;;5060686;28;20048;-74
2022/12/03 04:58:55;;;;;;;28.85;12.93;;;3.90;99.90;;;;;;5061117;28;20070;-73
2022/12/03 05:01:21;;;;;;;30.15;12.80;;;3.20;99.90;;;;;;5027862;28;20548;-75
2022/12/03 05:03:47;;;;;;;28.40;12.85;;;3.90;99.90;;;;;;5044345;28;20139;-74
2022/12/03 05:06:13;;;;;;;30.10;12.85;;;3.90;99.90;;;;;;5060920;28;20075;-75
2022/12/03 05:08:38;;;;;;;30.35;12.65;;;3.90;99.90;;;;;;5060615;28;20529;-73
2022/12/03 05:11:04;;;;;;;28.10;12.60;;;3.80;99.90;;;;;;5060630;28;20043;-74
2022/12/03 05:13:30;;;;;;;31.15;12.40;;;3.80;99.90;;;;;;5077179;28;20127;-75
2022/12/03 05:15:56;;;;;;;31.90;13.10;;;3.80;99.90;;;;;;5060589;28;20070;-75
2022/12/03 05:18:22;;;;;;;30.13;13.10;;;3.80;99.90;;;;;;5060515;28;20052;-74
2022/12/03 05:20:48;;;;;;;30.27;13.25;;;3.80;99.90;;;;;;5060407;28;20113;-75
2022/12/03 05:23:14;;;;;;;30.08;13.13;;;3.80;99.90;;;;;;5077157;28;20131;-73
2022/12/03 05:25:40;;;;;;;27.60;12.30;;;3.80;99.90;;;;;;5060314;28;20048;-73
2022/12/03 05:28:06;;;;;;;29.05;12.90;;;3.80;99.90;;;;;;5077130;28;20071;-73
2022/12/03 05:30:32;;;;;;;29.35;11.45;;;3.70;99.90;;;;;;5060006;28;20047;-74
2022/12/03 05:32:59;;;;;;;29.92;12.75;;;3.80;99.90;;;;;;5043724;28;20051;-73
2022/12/03 05:35:25;;;;;;;28.83;12.50;;;3.80;99.90;;;;;;5043659;28;20091;-75
2022/12/03 05:37:51;;;;;;;25.90;11.95;;;3.70;99.90;;;;;;5043492;28;20052;-75
2022/12/03 05:40:17;;;;;;;30.17;12.85;;;3.70;99.90;;;;;;5076910;28;20084;-74
2022/12/03 05:42:52;;;;;;;31.75;12.77;;;3.70;99.90;;;;;;5060129;28;20086;-74
2022/12/03 05:45:27;;;;;;;27.52;12.55;;;3.70;99.90;;;;;;5059914;28;20047;-75
2022/12/03 05:47:54;;;;;;;30.75;12.93;;;3.70;99.90;;;;;;5059956;28;20047;-75
2022/12/03 05:50:22;;;;;;;28.08;12.30;;;3.70;99.90;;;;;;5060092;28;20051;-74
2022/12/03 05:52:48;;;;;;;27.33;12.38;;;3.70;99.90;;;;;;5060128;28;20079;-73
2022/12/03 05:55:14;;;;;;;27.30;12.55;;;3.20;99.90;;;;;;5052804;28;20061;-72
2022/12/03 05:57:40;;;;;;;30.80;12.48;;;3.70;99.90;;;;;;5069432;28;20048;-73
2022/12/03 06:00:31;;;;;;;31.85;12.35;;;3.70;99.90;;;;;;5053155;28;20056;-73
2022/12/03 06:02:57;;;;;;;28.45;12.35;;;3.70;99.90;;;;;;5052911;28;20064;-73
2022/12/03 06:05:24;;;;;;;26.42;11.18;;;3.70;99.90;;;;;;5053077;28;20056;-73
2022/12/03 06:07:51;;;;;;;30.05;11.43;;;3.70;99.90;;;;;;5069381;28;20077;-74
2022/12/03 06:10:23;;;;;;;29.83;13.00;;;3.70;99.90;;;;;;5036371;28;20135;-75
2022/12/03 06:12:49;;;;;;;27.60;11.95;;;3.70;99.90;;;;;;5036240;28;20515;-74
2022/12/03 06:15:16;;;;;;;28.73;11.80;;;3.70;99.90;;;;;;5036289;28;20084;-74
2022/12/03 06:17:42;;;;;;;28.40;11.93;;;3.70;99.90;;;;;;5035438;28;20053;-74
2022/12/03 06:20:13;;;;;;;30.58;11.82;;;3.70;99.90;;;;;;5036176;28;20486;-75
2022/12/03 06:22:39;;;;;;;26.80;11.77;;;3.60;99.90;;;;;;5052241;28;20403;-73
2022/12/03 06:25:05;;;;;;;28.42;12.65;;;3.60;99.90;;;;;;5069401;28;20052;-73
2022/12/03 06:27:31;;;;;;;27.40;12.77;;;3.60;99.90;;;;;;5036065;28;20115;-73
2022/12/03 06:29:57;;;;;;;32.78;12.57;;;3.60;99.90;;;;;;5052455;28;20453;-74
2022/12/03 06:32:23;;;;;;;31.58;13.23;;;3.70;99.90;;;;;;5052544;28;20044;-74
2022/12/03 06:34:49;;;;;;;32.33;13.13;;;3.60;99.90;;;;;;5051880;28;20131;-75
2022/12/03 06:37:14;;;;;;;27.20;11.80;;;3.60;99.90;;;;;;5052150;28;20080;-76
2022/12/03 06:39:40;;;;;;;29.23;12.23;;;3.60;99.90;;;;;;5035574;28;20052;-73
2022/12/03 06:42:06;;;;;;;31.02;11.98;;;3.60;99.90;;;;;;5035394;28;20041;-73
2022/12/03 06:44:32;;;;;;;34.92;13.30;;;3.60;99.90;;;;;;5019277;28;20056;-73
2022/12/03 06:46:58;;;;;;;28.45;11.73;;;3.60;99.90;;;;;;5052091;28;20055;-74
2022/12/03 06:49:24;;;;;;;25.83;11.95;;;3.60;99.90;;;;;;5052239;28;20047;-73
2022/12/03 06:51:50;;;;;;;30.30;12.88;;;3.60;99.90;;;;;;5051892;28;20183;-74
2022/12/03 06:54:16;;;;;;;31.98;12.98;;;3.60;99.90;;;;;;5035316;28;20138;-75
2022/12/03 06:56:42;;;;;;;30.15;12.10;;;3.60;99.90;;;;;;5051593;28;20533;-75
2022/12/03 06:59:08;;;;;;;30.60;12.90;;;3.60;99.90;;;;;;5068385;28;20045;-74
2022/12/03 07:01:34;;;;;;;30.08;12.85;;;3.60;99.90;;;;;;5035535;28;20045;-74
2022/12/03 07:04:00;;;;;;;32.38;13.70;;;3.60;99.90;;;;;;5051694;28;20059;-74
2022/12/03 07:06:26;;;;;;;29.55;12.43;;;3.50;99.90;;;;;;5018475;28;20044;-75
2022/12/03 07:08:52;;;;;;;35.63;14.75;;;3.50;99.90;;;;;;5051266;28;20099;-75
2022/12/03 07:11:30;;;;;;;32.67;13.40;;;3.50;99.90;;;;;;5051826;28;20045;-77
2022/12/03 07:14:00;;;;;;;34.78;13.50;;;3.50;99.90;;;;;;4684729;28;9999983;-77
2022/12/03 07:16:26;;;;;;;29.88;13.68;;;3.50;99.90;;;;;;5049529;28;20483;-76
2022/12/03 07:18:52;;;;;;;32.58;13.77;;;3.50;99.90;;;;;;5032307;28;20039;-77
2022/12/03 07:21:18;;;;;;;32.17;13.73;;;3.50;99.90;;;;;;5032986;28;20051;-75
2022/12/03 07:23:44;;;;;;;31.73;12.65;;;3.50;99.90;;;;;;5031966;28;20103;-76
2022/12/03 07:26:10;;;;;;;34.85;13.13;;;3.50;99.90;;;;;;5016113;28;20046;-77
2022/12/03 07:28:36;;;;;;;32.03;13.77;;;3.50;99.90;;;;;;5032440;28;20168;-76
2022/12/03 07:31:02;;;;;;;30.48;12.98;;;3.50;99.90;;;;;;5029372;28;20135;-77
2022/12/03 07:33:28;;;;;;;39.30;14.70;;;3.50;99.90;;;;;;5032144;28;20052;-76
2022/12/03 07:35:54;;;;;;;35.15;13.43;;;3.50;99.90;;;;;;5022409;28;20515;-76
2022/12/03 07:38:19;;;;;;;33.42;13.65;;;3.40;99.90;;;;;;5048564;28;20570;-76
2022/12/03 07:40:45;;;;;;;31.52;13.07;;;3.50;99.90;;;;;;5015150;28;20077;-77
2022/12/03 07:43:11;;;;;;;32.72;12.95;;;3.50;99.90;;;;;;5048555;28;20087;-77
2022/12/03 07:45:37;;;;;;;28.70;13.57;;;3.40;99.90;;;;;;5048587;28;20135;-76
2022/12/03 07:48:03;;;;;;;30.48;13.20;;;3.40;99.90;;;;;;5050133;28;20067;-77
2022/12/03 07:50:29;;;;;;;36.08;14.35;;;3.40;99.90;;;;;;5036818;28;20509;-75
2022/12/03 07:52:55;;;;;;;31.45;13.25;;;3.40;99.90;;;;;;5052855;28;20490;-75
2022/12/03 07:55:23;;;;;;;32.38;13.57;;;3.40;99.90;;;;;;5049434;28;20060;-76
2022/12/03 07:57:49;;;;;;;30.27;12.68;;;3.30;99.90;;;;;;5055841;28;20084;-77
2022/12/03 08:00:16;;;;;;;34.65;13.60;;;3.40;99.90;;;;;;5072601;28;20089;-77
2022/12/03 08:02:42;;;;;;;33.22;13.27;;;3.40;99.90;;;;;;5073285;28;20134;-77
2022/12/03 08:05:08;;;;;;;33.20;14.82;;;3.30;99.90;;;;;;5073107;28;20615;-76
2022/12/03 08:07:34;;;;;;;34.33;14.00;;;3.40;99.90;;;;;;5073274;28;20431;-76
2022/12/03 08:09:59;;;;;;;31.10;12.90;;;3.30;99.90;;;;;;5073040;28;20052;-75
2022/12/03 08:12:40;;;;;;;33.25;13.90;;;3.30;99.90;;;;;;5039194;28;20135;-76
2022/12/03 08:15:15;;;;;;;31.02;13.13;;;3.30;99.90;;;;;;5054066;28;20091;-76
2022/12/03 08:17:41;;;;;;;32.20;13.07;;;3.30;99.90;;;;;;5055984;28;20045;-75
2022/12/03 08:20:16;;;;;;;32.70;13.65;;;3.30;99.90;;;;;;5074120;28;20048;-76
2022/12/03 08:22:45;;;;;;;34.30;13.85;;;3.30;99.90;;;;;;5055234;28;20045;-77
2022/12/03 08:25:24;;;;;;;33.58;13.73;;;3.30;99.90;;;;;;5038363;28;20300;-76
2022/12/03 08:27:52;;;;;;;35.28;14.55;;;3.40;99.90;;;;;;5038620;28;20056;-76
2022/12/03 08:30:18;;;;;;;33.40;13.57;;;3.40;99.90;;;;;;5054888;28;20448;-76
2022/12/03 08:32:45;;;;;;;34.58;13.90;;;3.40;99.90;;;;;;5038335;28;20056;-76
2022/12/03 08:35:26;;;;;;;35.58;13.75;;;3.40;99.90;;;;;;5038056;28;20124;-75
2022/12/03 08:38:17;;;;;;;33.33;14.63;;;3.40;99.90;;;;;;5054897;28;20049;-77
2022/12/03 08:40:47;;;;;;;31.63;13.37;;;3.30;99.90;;;;;;5033354;28;20393;-76
2022/12/03 08:43:19;;;;;;;31.77;14.05;;;3.40;99.90;;;;;;5037941;28;20326;-76
2022/12/03 08:45:46;;;;;;;33.63;14.32;;;3.30;99.90;;;;;;5038228;28;20044;-77
2022/12/03 08:48:17;;;;;;;34.97;14.35;;;3.30;99.90;;;;;;5037734;28;20052;-77
2022/12/03 08:50:44;;;;;;;35.63;14.35;;;3.30;99.90;;;;;;5054486;28;20045;-76
2022/12/03 08:53:12;;;;;;;34.30;13.98;;;3.40;99.90;;;;;;5054445;28;20101;-76
2022/12/03 08:55:46;;;;;;;33.58;14.35;;;3.30;99.90;;;;;;5053904;28;20505;-75
2022/12/03 08:58:22;;;;;;;37.33;14.02;;;3.30;99.90;;;;;;5053806;28;20131;-77
2022/12/03 09:00:56;;;;;;;32.53;14.48;;;3.30;99.90;;;;;;5054287;28;20048;-77
2022/12/03 09:03:23;;;;;;;35.72;14.80;;;3.30;99.90;;;;;;5037725;28;20048;-77
2022/12/03 09:05:49;;;;;;;41.88;15.13;;;3.20;99.90;;;;;;5054305;28;20043;-74
2022/12/03 09:08:15;;;;;;;38.15;15.73;;;3.20;99.90;;;;;;5037283;28;20045;-76
2022/12/03 09:10:41;;;;;;;34.47;14.57;;;3.30;99.90;;;;;;5004952;28;20049;-76
2022/12/03 09:13:07;;;;;;;36.45;15.23;;;4.10;99.90;;;;;;5020893;28;20052;-76
2022/12/03 09:15:33;;;;;;;38.55;16.08;;;3.20;99.90;;;;;;5037323;28;20053;-76
2022/12/03 09:17:58;;;;;;;36.72;15.18;;;3.30;99.90;;;;;;5053851;28;20399;-76
2022/12/03 09:20:24;;;;;;;35.58;14.80;;;3.20;99.90;;;;;;5020560;28;20513;-76
2022/12/03 09:22:50;;;;;;;36.97;14.90;;;4.30;99.90;;;;;;5020748;28;20081;-76
2022/12/03 09:25:16;;;;;;;36.72;15.68;;;3.20;99.90;;;;;;5035551;28;20084;-75
2022/12/03 09:27:42;;;;;;;34.70;14.32;;;3.20;99.90;;;;;;5018145;28;20053;-76
2022/12/03 09:30:08;;;;;;;36.83;14.13;;;3.10;99.90;;;;;;5034983;28;20049;-77
2022/12/03 09:32:34;;;;;;;36.47;14.50;;;3.00;99.90;;;;;;5034864;28;20111;-76
2022/12/03 09:35:00;;;;;;;41.85;14.75;;;3.20;99.90;;;;;;5034822;28;20037;-76
2022/12/03 09:37:26;;;;;;;37.65;15.43;;;3.00;99.90;;;;;;5050461;28;20068;-76
2022/12/03 09:39:52;;;;;;;37.05;14.70;;;3.00;99.90;;;;;;5034819;28;20102;-75
2022/12/03 09:42:18;;;;;;;38.03;15.38;;;3.10;99.90;;;;;;5034531;28;20114;-76
2022/12/03 09:44:44;;;;;;;39.33;15.88;;;3.10;99.90;;;;;;5034751;28;20135;-76
2022/12/03 09:47:10;;;;;;;38.97;15.25;;;3.10;99.90;;;;;;5034393;28;20438;-75
2022/12/03 09:49:37;;;;;;;36.88;15.20;;;3.10;99.90;;;;;;5034289;28;20045;-75
2022/12/03 09:52:04;;;;;;;47.55;16.58;;;3.00;99.90;;;;;;5051120;28;20463;-76
2022/12/03 09:54:31;;;;;;;37.63;14.65;;;3.10;99.90;;;;;;5056969;28;20344;-76
2022/12/03 09:57:01;;;;;;;38.95;14.90;;;3.10;99.90;;;;;;5070738;28;20105;-77
2022/12/03 09:59:30;;;;;;;34.85;14.25;;;3.10;99.90;;;;;;5070386;28;20478;-75
2022/12/03 10:01:57;;;;;;;37.75;14.82;;;3.10;99.90;;;;;;5065149;28;20111;-76
2022/12/03 10:04:23;;;;;;;37.35;15.23;;;3.10;99.90;;;;;;5054061;28;20061;-75
2022/12/03 10:06:50;;;;;;;42.45;15.80;;;3.90;99.90;;;;;;5054048;28;20044;-77
2022/12/03 10:09:23;;;;;;;36.85;15.10;;;3.60;99.90;;;;;;5070260;28;20048;-76
2022/12/03 10:11:49;;;;;;;37.05;14.88;;;3.20;99.90;;;;;;5037158;28;20080;-76
2022/12/03 10:14:17;;;;;;;36.83;14.48;;;3.90;99.90;;;;;;5049997;28;20142;-76
2022/12/03 10:16:43;;;;;;;42.60;15.85;;;3.20;99.90;;;;;;5050308;28;20045;-76
2022/12/03 10:19:22;;;;;;;33.53;14.38;;;3.30;99.90;;;;;;5017333;28;20045;-76
2022/12/03 10:21:48;;;;;;;37.33;15.30;;;3.30;99.90;;;;;;5050358;28;20458;-75
2022/12/03 10:24:30;;;;;;;38.05;14.98;;;2.50;99.90;;;;;;5033392;28;20044;-76
2022/12/03 10:26:59;;;;;;;42.75;16.85;;;3.30;99.90;;;;;;5042599;28;20045;-75
2022/12/03 10:29:31;;;;;;;41.35;14.60;;;3.30;99.90;;;;;;5049869;28;20399;-76
2022/12/03 10:32:05;;;;;;;36.88;14.68;;;3.30;99.90;;;;;;5033786;28;20091;-75
2022/12/03 10:34:35;;;;;;;36.17;15.18;;;3.30;99.90;;;;;;5049944;28;20056;-77
2022/12/03 10:37:07;;;;;;;38.10;14.95;;;4.20;99.90;;;;;;5050073;28;20475;-76
2022/12/03 10:39:55;;;;;;;38.58;16.38;;;3.30;71.40;;;;;;5049971;28;20049;-75
2022/12/03 10:42:21;;;;;;;38.15;15.23;;;3.40;99.90;;;;;;5049631;28;20053;-75
2022/12/03 10:44:48;;;;;;;38.38;14.48;;;3.40;99.90;;;;;;5033952;28;20041;-78
2022/12/03 10:47:14;;;;;;;39.30;14.85;;;3.50;99.90;;;;;;5049283;28;20132;-77
2022/12/03 10:49:40;;;;;;;37.05;14.77;;;3.80;99.90;;;;;;5032489;28;20118;-76
2022/12/03 10:52:21;;;;;;;34.10;15.30;;;3.40;28.40;;;;;;5033173;28;20053;-77
2022/12/03 10:54:48;;;;;;;36.97;15.02;;;3.50;71.40;;;;;;5028770;28;20530;-76
2022/12/03 10:57:14;;;;;;;35.55;14.15;;;3.50;99.90;;;;;;5034532;28;20115;-75
2022/12/03 10:59:41;;;;;;;35.85;14.90;;;3.60;99.90;;;;;;5013125;28;20412;-76
2022/12/03 11:02:19;;;;;;;37.88;15.30;;;3.60;99.90;;;;;;5012742;28;20187;-79
2022/12/03 11:04:45;;;;;;;37.53;15.40;;;3.70;99.90;;;;;;5046552;28;20064;-76
2022/12/03 11:07:15;;;;;;;36.15;14.70;;;3.80;99.90;;;;;;5032376;28;20041;-74
2022/12/03 11:09:57;;;;;;;35.03;14.07;;;3.70;16.20;;;;;;5005110;28;20045;-76
2022/12/03 11:12:33;;;;;;;40.35;15.35;;;3.80;98.70;;;;;;5033576;28;20419;-74
2022/12/03 11:15:05;;;;;;;34.63;14.77;;;3.80;80.70;;;;;;5019347;28;20060;-75
2022/12/03 11:17:44;;;;;;;36.58;15.52;;;3.90;53.20;;;;;;5051405;28;20056;-74
2022/12/03 11:20:30;;;;;;;36.45;15.48;;;3.90;1.00;;;;;;5051242;28;20399;-75
2022/12/03 11:22:58;;;;;;;37.20;14.50;;;3.80;99.90;;;;;;5001689;28;20068;-74
2022/12/03 11:25:23;;;;;;;42.72;15.93;;;3.90;1.00;;;;;;5051398;28;20045;-75
2022/12/03 11:28:14;;;;;;;37.35;15.88;;;3.80;1.00;;;;;;5051719;28;20037;-75
2022/12/03 11:30:49;;;;;;;36.10;15.45;;;3.80;1.00;;;;;;5051368;28;20045;-75
2022/12/03 11:33:26;;;;;;;38.15;15.23;;;4.70;1.00;;;;;;5034820;28;20185;-76
2022/12/03 11:36:04;;;;;;;33.80;14.07;;;4.00;1.00;;;;;;5051410;28;20098;-76
2022/12/03 11:38:36;;;;;;;38.05;15.18;;;4.10;1.00;;;;;;5034567;28;20060;-76
2022/12/03 11:41:12;;;;;;;35.95;15.50;;;4.70;80.80;;;;;;5034899;28;20151;-75
2022/12/03 11:43:55;;;;;;;36.17;14.88;;;4.20;58.30;;;;;;5050996;28;20041;-75
2022/12/03 11:46:38;;;;;;;37.92;15.57;;;4.30;1.00;;;;;;5034763;28;20041;-74
2022/12/03 11:49:31;;;;;;;38.53;15.73;;;4.10;1.00;;;;;;5034781;28;20491;-75
2022/12/03 11:52:00;;;;;;;30.67;14.32;;;4.10;1.00;;;;;;5051435;28;20115;-74
2022/12/03 11:54:26;;;;;;;33.70;13.80;;;4.10;1.00;;;;;;5051189;28;20045;-75
2022/12/03 11:56:53;;;;;;;34.20;14.88;;;4.10;1.00;;;;;;5062319;28;20071;-75
2022/12/03 11:59:19;;;;;;;37.85;16.45;;;4.10;1.00;;;;;;5054818;28;20059;-76
2022/12/03 12:01:46;;;;;;;34.80;14.65;;;4.10;1.00;;;;;;5071149;28;20045;-75
2022/12/03 12:04:27;;;;;;;34.10;14.90;;;4.10;1.00;;;;;;5071155;28;20456;-76
2022/12/03 12:06:53;;;;;;;40.30;15.07;;;4.10;1.00;;;;;;5071323;28;20056;-76
2022/12/03 12:09:51;;;;;;;36.55;15.27;;;4.20;1.00;;;;;;5071306;28;20037;-77
2022/12/03 12:12:38;;;;;;;33.70;14.98;;;4.20;99.90;;;;;;5071185;28;20044;-76
2022/12/03 12:15:34;;;;;;;34.45;15.88;;;4.20;1.00;;;;;;5071305;28;20135;-75
2022/12/03 12:18:38;;;;;;;35.83;14.63;;;4.10;1.00;;;;;;5054123;28;20056;-75
2022/12/03 12:21:41;;;;;;;34.10;14.52;;;4.10;99.90;;;;;;5040447;28;20505;-75
2022/12/03 12:24:46;;;;;;;32.42;13.48;;;4.10;99.90;;;;;;5071115;28;20052;-75
2022/12/03 12:27:34;;;;;;;34.80;15.20;;;4.00;99.90;;;;;;5053497;28;20053;-76
2022/12/03 12:30:22;;;;;;;31.40;13.50;;;4.00;99.90;;;;;;5054504;28;20044;-74
2022/12/03 12:32:52;;;;;;;34.42;15.10;;;4.10;99.90;;;;;;5054339;28;20179;-76
2022/12/03 12:35:23;;;;;;;34.40;14.40;;;4.30;99.90;;;;;;5058111;28;20052;-75
2022/12/03 12:37:52;;;;;;;37.85;15.75;;;4.50;99.90;;;;;;5057623;28;20478;-75
2022/12/03 12:40:22;;;;;;;36.33;14.00;;;4.60;99.90;;;;;;5074854;28;20067;-76
2022/12/03 12:42:53;;;;;;;35.58;14.43;;;4.80;99.90;;;;;;5074260;28;20490;-76
2022/12/03 12:45:25;;;;;;;33.67;13.73;;;5.10;99.90;;;;;;5057830;28;20510;-76
2022/12/03 12:48:15;;;;;;;33.58;15.10;;;5.00;99.90;;;;;;5057900;28;20402;-76
2022/12/03 12:50:45;;;;;;;32.80;14.15;;;5.00;99.90;;;;;;5057717;28;20056;-75
2022/12/03 12:53:26;;;;;;;33.33;13.95;;;4.80;99.90;;;;;;5057982;28;20044;-76
2022/12/03 12:56:01;;;;;;;32.13;14.30;;;4.70;1.00;;;;;;5060225;28;20060;-76
2022/12/03 12:58:32;;;;;;;34.47;14.23;;;4.50;1.00;;;;;;5077521;28;20379;-75
2022/12/03 13:01:04;;;;;;;37.67;15.55;;;4.50;99.90;;;;;;5077795;28;20044;-76
2022/12/03 13:03:37;;;;;;;32.75;14.15;;;4.40;99.90;;;;;;5061044;28;20051;-78
2022/12/03 13:06:03;;;;;;;36.38;15.93;;;4.30;1.00;;;;;;5061054;28;20055;-75
2022/12/03 13:08:41;;;;;;;34.28;14.70;;;4.20;52.40;;;;;;5044393;28;20508;-76
2022/12/03 13:11:41;;;;;;;35.22;15.27;;;4.20;99.90;;;;;;5044752;28;20056;-75
2022/12/03 13:14:17;;;;;;;39.72;16.33;;;4.20;99.90;;;;;;5060918;28;20055;-74